View Sortable Currents For Network
ASOSAWOSCoCoRaHSCOOPDCPISUSM
SchoolNetOtherSCANMy FavoritesBy StateRWIS
RWIS SurfaceRWIS TrafficRWIS SoilBy NWS WFO
ADD: Station: Ob Time Temps °F     Wind [knots] Precip
Air (Hi / Lo) DewP Feels RH% Vis Speed Direction Gust @Time Accum [1]
Dubuque (US 20)11:14 AM 82.76(82.94/66.56) 70.88 87 67 0 3G7 215 7@ 11:14 AM 0
Steamboat Rock (US20)11:14 AM 77.54(77.54/62.78) 69.26 78 76 0 10G13 155 15@ 11:04 AM 0
De Witt (US 30/US 61)11:13 AM 81.32(81.32/63.86) 68.72 84 66 0 5G10 105 10@ 11:13 AM 0
Des Moines (I-35)11:13 AM 80.6(80.6/65.66) 67.28 83 64 0 3G8 105 11@ 10:53 AM 0
Ankeny (I-35)11:12 AM 80.96(80.96/66.56) 71.42 85 73 1.2 6G9 150 9@ 11:12 AM 0
Red Oak (US 34/US 71)11:12 AM 77.18(77.18/62.24) 69.62 77 78 0 4G7 145 8@ 10:12 AM 0
Granger11:12 AM 77.72(93.2/77.36) 78 0 0 6G8 171 9@ 10:52 AM 0
Urbana (I-380)11:12 AM 78.26(78.26/63.32) 70.52 78 77 2.3 4G9 170 10@ 11:02 AM 0
Saratoga11:12 AM 75.92(75.92/60.44) 69.08 76 79 0 5G8 210 10@ 10:12 AM 0
Ottumwa (US 63)11:12 AM 81.68(82.22/68.54) 71.6 86 72 1.8 5G8 125 10@ 11:02 AM 0
Denison11:12 AM 77.36(77.36/63.86) 67.82 77 72 2.6 0 10 0@ 06:00 PM 0
Victor11:12 AM (/) 0 0 0 4G9 174 9@ 11:12 AM 0
Sidney (I-29/IA 2)11:12 AM 74.84(74.84/68.36) 71.06 75 88 7.1 4G6 180 12@ 09:52 AM 0
Missouri Valley (I-29)11:11 AM 71.6(72.68/65.84) 72 0 4.6 5G8 180 10@ 09:21 AM 0
Jefferson (IA 4)11:11 AM 78.62(78.62/60.8) 69.26 79 73 5.6 3G10 130 10@ 11:11 AM 0
Osceola (I-35)11:11 AM 80.96(80.96/62.42) 72.14 85 75 1.1 6G11 0 12@ 11:01 AM 0
Sloan I-2911:11 AM 75.74(75.74/63.32) 69.62 76 81 7.1 4G6 205 10@ 09:41 AM 0
Leon (I-35)/IA 2)11:11 AM 82.22(82.22/64.4) 67.28 85 61 2.9 2G8 140 9@ 10:31 AM 0
Storm Lake (US 71/IA 3)11:11 AM 76.64(76.64/57.92) 69.08 77 77 1.7 7G9 150 9@ 11:11 AM 0
Spencer (US 18)11:11 AM (/) 0 0 1.2 5G8 150 9@ 10:41 AM 0
Fort Dodge (US 20)11:11 AM 76.82(76.82/65.12) 70.88 77 82 7.1 6G9 135 9@ 11:11 AM 0
Mount Pleasant (US 218)11:11 AM 83.84(83.84/63.5) 70.52 88 64 0 1G5 140 6@ 10:51 AM 0
Manchester (US 20)11:11 AM 80.06(80.06/63.32) 67.82 83 66 0 3G5 215 8@ 10:11 AM 0
Pella (IA 163)11:11 AM 80.42(80.42/63.86) 67.64 83 65 0 5G7 135 8@ 10:41 AM 0
Iowa City (I-80)11:11 AM (/) 0 0 0 0 361 0@ 06:00 PM 0
Maquoketa (US 61/IA 64)11:11 AM 78.26(78.26/64.58) 65.3 78 64 0 5G8 195 9@ 10:21 AM 0
Davenport (I-80/I-280)11:11 AM 80.6(80.6/66.74) 64.22 82 57 0 4G6 0 12@ 09:20 AM 0
Iowa City (US 218)11:11 AM 78.26(78.26/67.1) 78.26 78 100 0 5G8 125 9@ 11:01 AM 0
Sibley11:10 AM 76.46(76.46/62.6) 74.66 76 94 7.1 6G8 135 11@ 10:20 AM 0
Bedford11:10 AM 77.54(77.54/61.52) 73.94 78 89 4.6 6G11 145 11@ 10:50 AM 0
Eddyville11:10 AM 81.14(81.68/67.28) 67.1 84 62 7.1 8G11 155 12@ 10:50 AM 0
Ida Grove (US 59)11:10 AM 79.34(80.42/61.52) 64.58 79 61 0 5G10 150 10@ 11:10 AM 0
Plainfield11:10 AM 77(77.54/60.44) 42.08 77 29 0 6G11 190 11@ 10:30 AM 0
Council Bluffs No211:10 AM 70.52(73.04/65.84) 0 0 0 3G6 220 8@ 10:00 AM 0
Elkhart I-35 No211:10 AM (/) 0 0 1.2 0 361 0@ 06:00 PM 0
Tama11:10 AM 78.8(78.8/58.64) 70.88 79 77 7.1 7G10 155 11@ 11:00 AM 0
Anamosa (US 151)11:10 AM 79.88(79.88/66.2) 69.26 80 70 1.2 7G9 150 10@ 11:00 AM 0
Rockwell City11:10 AM 77.9(78.26/61.7) 70.16 78 77 0 10G13 165 13@ 11:10 AM 0
Sioux City Maintenance11:10 AM (/) 0 0 0 0 0@ 06:00 PM 0
Cambridge I-3511:10 AM (/) 0 0 1.2 0 361 0@ 06:00 PM 0
Centerville (IA 2)11:10 AM 81.68(81.68/64.94) 67.28 84 62 0 4G9 180 10@ 10:40 AM 0
Quad Cities11:10 AM 77.9(78.26/67.82) 76.46 78 95 6.4 5G8 150 12@ 08:50 AM 0
Estherville - Hwy 911:10 AM 75.2(75.2/60.98) 72.68 75 92 0 2G5 150 6@ 10:50 AM 0
Burlington (US 34)11:10 AM 79.16(79.16/69.44) 76.46 79 91 0 5G7 165 7@ 11:10 AM 0
Colfax - I-8011:10 AM 82.76(82.76/65.66) 73.94 89 75 3.4 2G6 165 8@ 11:00 AM 0
Williamsburg (I-80)11:10 AM 79.88(79.88/64.04) 70.34 80 73 3.7 5G8 180 10@ 11:00 AM 0
Cantril11:10 AM 81.5(81.86/60.62) 60.62 82 49 3.1 8G11 0 11@ 11:10 AM 0
Waterloo (US 20)11:10 AM 79.52(79.52/66.74) 77.18 80 93 0 8G12 195 12@ 11:10 AM 0
Adair (I-80)11:10 AM 79.88(80.06/62.78) 66.92 80 65 5.7 10G13 175 13@ 11:10 AM 0
Des Moines (I-235)11:10 AM 80.06(80.06/69.62) 69.62 83 71 0 0 361 0@ 06:00 PM 0
Creston (US 34)11:10 AM 79.34(79.34/63.14) 67.64 79 67 0 6G11 155 11@ 10:30 AM 0
Alton (IA10)11:10 AM 75.38(75.38/63.86) 69.98 75 83 0 5G6 130 10@ 09:50 AM 0
Algona (US 18)11:10 AM 77.36(77.36/64.04) 71.06 77 81 0 0 361 0@ 06:00 PM 0
Decorah (IA 9)11:10 AM 82.58(83.3/64.4) 71.96 88 70 7.1 4G7 170 8@ 10:40 AM 0
Sigourney (IA 92)11:10 AM (/) 0 0 0 0 5 0@ 06:00 PM 0
Hanlontown (I-35)11:10 AM 77(77/60.98) 69.08 77 77 2.3 0 10 0@ 06:00 PM 0
Cedar Rapids (I-380)11:10 AM 79.88(79.88/69.26) 70.7 80 74 7.1 3G8 5 9@ 08:40 AM 0
New Hampton (US 18)11:10 AM 78.08(78.08/61.34) 68.72 78 73 4.6 5G10 100 10@ 11:10 AM 0
Avoca (I-80)11:10 AM 77.54(77.54/65.3) 74.12 78 89 1.7 4G10 155 12@ 10:20 AM 0
De Soto (I-80/US 169)11:10 AM 78.62(78.8/63.32) 70.16 79 75 0 6G8 110 9@ 11:00 AM 0
Carroll (US 30)11:10 AM 78.98(78.98/58.1) 67.46 79 68 1.2 6G10 130 10@ 11:10 AM 0
Altoona (I-80/US 65)11:10 AM 79.7(79.7/67.82) 71.24 80 75 7.6 6G9 145 9@ 11:10 AM 0
Elkhart I-35 No111:10 AM (/) 0 0 1.2 0 361 0@ 06:00 PM 0
Cedar Rapids (US 30)11:10 AM 81.14(81.32/66.74) 71.78 85 73 4.9 6G10 105 10@ 11:10 AM 0
Mason City (I-35)11:10 AM 77.54(77.54/68.54) 76.64 78 97 1.1 0 140 1@ 07:00 AM 0
Williams (I-35)11:10 AM 77.9(77.9/61.52) 69.98 78 77 0 4G10 150 10@ 11:10 AM 0
Council Bluffs (I-80)11:10 AM 71.06(73.4/68.72) 15.44 71 12 0 2G3 0 10@ 10:40 AM 0
Moville11:10 AM 77.36(78.08/62.78) 70.16 77 79 0 5G8 245 10@ 10:30 AM 0
Tipton (I-80)11:10 AM 81.14(81.14/61.52) 67.64 84 64 6 1G5 175 8@ 09:20 AM 0
Marshalltown (US 30)11:03 AM 79.52(79.52/64.04) 70.16 80 73 0 6G9 145 10@ 10:33 AM 0


Notes:
1 Not all sites have the ability to measure precip nor visibility.
2 The Iowa City (I-80) RWIS site does not have atmospheric sensors on it , so it is not included on this page.